createdAt,value
2023-03-26T00:01:05.574Z,7.70
2023-03-26T00:03:34.194Z,7.70
2023-03-26T00:06:03.916Z,7.70
2023-03-26T00:08:30.928Z,7.70
2023-03-26T00:10:58.714Z,7.70
2023-03-26T00:13:26.745Z,7.70
2023-03-26T00:15:53.922Z,7.80
2023-03-26T00:18:24.639Z,7.80
2023-03-26T00:20:51.775Z,7.80
2023-03-26T00:23:18.576Z,7.80
2023-03-26T00:25:45.574Z,7.80
2023-03-26T00:28:12.320Z,7.80
2023-03-26T00:30:41.762Z,7.90
2023-03-26T00:33:11.646Z,7.90
2023-03-26T00:35:38.878Z,7.90
2023-03-26T00:38:05.654Z,7.90
2023-03-26T00:40:36.624Z,7.90
2023-03-26T00:43:10.082Z,8.00
2023-03-26T00:45:36.896Z,8.00
2023-03-26T00:48:04.097Z,8.00
2023-03-26T00:50:30.893Z,8.00
2023-03-26T00:52:58.808Z,8.00
2023-03-26T00:55:25.632Z,8.00
2023-03-26T00:57:52.396Z,8.00
2023-03-26T01:00:29.176Z,8.00
2023-03-26T01:02:58.724Z,8.10
2023-03-26T01:05:34.590Z,8.10
2023-03-26T01:08:19.136Z,8.10
2023-03-26T01:10:50.805Z,8.10
2023-03-26T01:13:23.265Z,8.10
2023-03-26T01:15:51.211Z,8.10
2023-03-26T01:18:26.284Z,8.10
2023-03-26T01:20:58.505Z,8.00
2023-03-26T01:23:37.198Z,8.00
2023-03-26T01:26:31.964Z,8.10
2023-03-26T01:29:02.286Z,8.10
2023-03-26T01:31:38.626Z,8.00
2023-03-26T01:34:20.229Z,8.00
2023-03-26T01:37:04.619Z,8.10
2023-03-26T01:40:06.830Z,8.10
2023-03-26T01:42:37.560Z,8.00
2023-03-26T01:45:13.018Z,8.10
2023-03-26T01:47:42.160Z,8.00
2023-03-26T01:50:09.559Z,8.00
2023-03-26T01:52:36.460Z,8.00
2023-03-26T01:55:03.658Z,8.10
2023-03-26T01:57:43.228Z,8.10
2023-03-26T02:00:31.453Z,8.10
2023-03-26T02:03:20.241Z,8.10
2023-03-26T02:05:57.757Z,8.10
2023-03-26T02:08:38.260Z,8.10
2023-03-26T02:11:13.163Z,8.10
2023-03-26T02:13:42.451Z,8.10
2023-03-26T02:16:14.121Z,8.00
2023-03-26T02:18:41.032Z,8.00
2023-03-26T02:21:14.365Z,8.00
2023-03-26T02:23:46.837Z,8.00
2023-03-26T02:26:16.441Z,8.00
2023-03-26T02:28:54.397Z,8.00
2023-03-26T02:31:21.762Z,8.00
2023-03-26T02:33:49.472Z,8.00
2023-03-26T02:36:19.504Z,8.00
2023-03-26T02:38:47.383Z,8.00
2023-03-26T02:41:15.279Z,8.00
2023-03-26T02:43:53.523Z,8.00
2023-03-26T02:46:23.434Z,7.90
2023-03-26T02:49:09.394Z,7.90
2023-03-26T02:51:37.376Z,7.90
2023-03-26T02:54:11.597Z,7.90
2023-03-26T02:56:51.954Z,7.90
2023-03-26T02:59:27.298Z,7.90
2023-03-26T03:02:13.390Z,7.80
2023-03-26T03:04:40.365Z,7.80
2023-03-26T03:07:07.642Z,7.80
2023-03-26T03:09:34.686Z,7.80
2023-03-26T03:12:36.893Z,7.90
2023-03-26T03:15:04.085Z,7.90
2023-03-26T03:17:30.887Z,7.90
2023-03-26T03:19:57.660Z,7.90
2023-03-26T03:22:24.603Z,7.90
2023-03-26T03:24:57.632Z,8.00
2023-03-26T03:27:25.988Z,8.00
2023-03-26T03:30:08.655Z,7.90
2023-03-26T03:32:58.369Z,7.90
2023-03-26T03:35:27.478Z,7.90
2023-03-26T03:37:58.812Z,7.80
2023-03-26T03:40:27.162Z,7.80
2023-03-26T03:42:53.988Z,7.70
2023-03-26T03:45:29.869Z,7.70
2023-03-26T03:48:06.701Z,7.70
2023-03-26T03:50:39.519Z,7.60
2023-03-26T03:53:26.557Z,7.60
2023-03-26T03:55:56.275Z,7.60
2023-03-26T03:58:28.330Z,7.50
2023-03-26T04:01:00.828Z,7.50
2023-03-26T04:03:51.934Z,7.50
2023-03-26T04:06:25.131Z,7.40
2023-03-26T04:08:53.475Z,7.40
2023-03-26T04:11:20.683Z,7.40
2023-03-26T04:14:13.046Z,7.40
2023-03-26T04:17:05.234Z,7.30
2023-03-26T04:19:34.610Z,7.30
2023-03-26T04:22:05.104Z,7.30
2023-03-26T04:24:42.561Z,7.30
2023-03-26T04:27:28.101Z,7.30
2023-03-26T04:30:03.218Z,7.30
2023-03-26T04:32:33.964Z,7.40
2023-03-26T04:35:04.032Z,7.40
2023-03-26T04:37:34.323Z,7.40
2023-03-26T04:40:10.213Z,7.40
2023-03-26T04:42:50.473Z,7.40
2023-03-26T04:45:31.299Z,7.40
2023-03-26T04:47:58.434Z,7.50
2023-03-26T04:50:26.488Z,7.50
2023-03-26T04:52:54.570Z,7.50
2023-03-26T04:56:01.375Z,7.50
2023-03-26T04:58:50.283Z,7.50
2023-03-26T05:01:17.458Z,7.50
2023-03-26T05:03:46.735Z,7.50
2023-03-26T05:06:16.218Z,7.50
2023-03-26T05:08:42.994Z,7.50
2023-03-26T05:11:17.602Z,7.50
2023-03-26T05:13:44.339Z,7.50
2023-03-26T05:16:13.275Z,7.50
2023-03-26T05:18:44.933Z,7.60
2023-03-26T05:21:11.971Z,7.60
2023-03-26T05:23:40.226Z,7.60
2023-03-26T05:26:14.534Z,7.60
2023-03-26T05:28:41.562Z,7.60
2023-03-26T05:31:21.311Z,7.70
2023-03-26T05:33:50.205Z,7.70
2023-03-26T05:36:17.160Z,7.70
2023-03-26T05:38:49.634Z,7.70
2023-03-26T05:41:39.619Z,7.70
2023-03-26T05:44:06.436Z,7.70
2023-03-26T05:46:33.251Z,7.70
2023-03-26T05:49:00.291Z,7.70
2023-03-26T05:51:29.219Z,7.70
2023-03-26T05:54:15.332Z,7.70
2023-03-26T05:57:00.770Z,7.70
2023-03-26T05:59:45.917Z,7.70
2023-03-26T06:02:18.614Z,7.80
2023-03-26T06:05:19.130Z,7.80
2023-03-26T06:07:58.432Z,7.80
2023-03-26T06:10:31.841Z,7.80
2023-03-26T06:12:58.636Z,7.90
2023-03-26T06:15:25.667Z,7.90
2023-03-26T06:17:59.233Z,7.90
2023-03-26T06:20:44.335Z,7.90
2023-03-26T06:23:25.172Z,8.00
2023-03-26T06:26:11.777Z,8.00
2023-03-26T06:28:47.711Z,8.00
2023-03-26T06:31:46.730Z,8.00
2023-03-26T06:34:26.302Z,7.90
2023-03-26T06:36:53.524Z,8.00
2023-03-26T06:39:21.636Z,8.10
2023-03-26T06:42:00.394Z,8.10
2023-03-26T06:44:56.258Z,8.10
2023-03-26T06:47:35.213Z,8.10
2023-03-26T06:50:20.726Z,8.10
2023-03-26T06:53:06.364Z,8.10
2023-03-26T06:55:57.164Z,8.10
2023-03-26T06:58:35.900Z,8.20
2023-03-26T07:01:21.260Z,8.20
2023-03-26T07:04:06.928Z,8.20
2023-03-26T07:06:52.448Z,8.30
2023-03-26T07:09:37.878Z,8.30
2023-03-26T07:12:14.277Z,8.30
2023-03-26T07:15:02.168Z,8.30
2023-03-26T07:17:47.263Z,8.30
2023-03-26T07:20:17.016Z,8.30
2023-03-26T07:22:44.948Z,8.30
2023-03-26T07:25:32.156Z,8.40
2023-03-26T07:28:24.216Z,8.40
2023-03-26T07:31:00.266Z,8.40
2023-03-26T07:33:56.356Z,8.40
2023-03-26T07:36:46.705Z,8.40
2023-03-26T07:40:03.607Z,8.40
2023-03-26T07:43:00.286Z,8.50
2023-03-26T07:45:49.883Z,8.50
2023-03-26T07:48:17.946Z,8.50
2023-03-26T07:51:00.007Z,8.50
2023-03-26T07:53:39.702Z,8.50
2023-03-26T07:56:21.181Z,8.60
2023-03-26T07:59:11.182Z,8.60
2023-03-26T08:02:05.749Z,8.70
2023-03-26T08:04:56.302Z,8.70
2023-03-26T08:07:50.737Z,8.70
2023-03-26T08:10:28.702Z,8.70
2023-03-26T08:13:10.721Z,8.70
2023-03-26T08:15:37.915Z,8.70
2023-03-26T08:18:18.169Z,8.60
2023-03-26T08:20:49.840Z,8.60
2023-03-26T08:23:35.176Z,8.60
2023-03-26T08:26:04.668Z,8.60
2023-03-26T08:28:43.003Z,8.60
2023-03-26T08:31:11.006Z,8.50
2023-03-26T08:33:40.623Z,8.60
2023-03-26T08:36:09.417Z,8.60
2023-03-26T08:38:36.265Z,8.60
2023-03-26T08:41:08.932Z,8.70
2023-03-26T08:43:55.500Z,8.70
2023-03-26T08:46:37.472Z,8.70
2023-03-26T08:49:26.273Z,8.80
2023-03-26T08:52:09.100Z,8.80
2023-03-26T08:54:44.736Z,8.80
2023-03-26T08:57:11.443Z,8.80
2023-03-26T08:59:50.424Z,8.80
2023-03-26T09:02:17.098Z,8.80
2023-03-26T09:04:55.688Z,8.80
2023-03-26T09:07:51.359Z,8.90
2023-03-26T09:10:33.942Z,8.90
2023-03-26T09:13:09.844Z,8.90
2023-03-26T09:15:51.678Z,8.90
2023-03-26T09:18:37.374Z,8.90
2023-03-26T09:21:21.375Z,9.00
2023-03-26T09:23:54.116Z,9.00
2023-03-26T09:26:25.309Z,9.00
2023-03-26T09:28:57.962Z,9.00
2023-03-26T09:31:42.787Z,9.00
2023-03-26T09:34:09.474Z,9.00
2023-03-26T09:36:39.152Z,9.00
2023-03-26T09:39:09.475Z,9.00
2023-03-26T09:41:54.976Z,9.10
2023-03-26T09:44:36.459Z,9.10
2023-03-26T09:47:03.523Z,9.10
2023-03-26T09:49:33.189Z,9.20
2023-03-26T09:52:03.130Z,9.20
2023-03-26T09:54:35.266Z,9.20
2023-03-26T09:57:14.393Z,9.30
2023-03-26T09:59:41.203Z,9.40
2023-03-26T10:02:23.396Z,9.40
2023-03-26T10:05:21.475Z,9.50
2023-03-26T10:08:00.597Z,9.50
2023-03-26T10:10:39.320Z,9.60
2023-03-26T10:13:15.370Z,9.60
2023-03-26T10:15:57.420Z,9.60
2023-03-26T10:18:33.174Z,9.50
2023-03-26T10:21:15.697Z,9.60
2023-03-26T10:23:51.021Z,9.50
2023-03-26T10:26:36.514Z,9.50
2023-03-26T10:29:06.059Z,9.50
2023-03-26T10:31:43.397Z,9.50
2023-03-26T10:34:29.705Z,9.50
2023-03-26T10:37:06.588Z,9.50
2023-03-26T10:39:43.435Z,9.50
2023-03-26T10:42:10.298Z,9.40
2023-03-26T10:44:48.450Z,9.40
2023-03-26T10:47:18.182Z,9.40
2023-03-26T10:49:59.883Z,9.40
2023-03-26T10:52:46.673Z,9.40
2023-03-26T10:55:16.267Z,9.50
2023-03-26T10:57:52.576Z,9.50
2023-03-26T11:00:25.060Z,9.50
2023-03-26T11:02:54.624Z,9.40
2023-03-26T11:05:38.020Z,9.50
2023-03-26T11:08:04.733Z,9.40
2023-03-26T11:10:56.333Z,9.30
2023-03-26T11:13:30.321Z,9.20
2023-03-26T11:16:02.277Z,9.10
2023-03-26T11:18:36.315Z,8.90
2023-03-26T11:21:20.764Z,8.80
2023-03-26T11:24:04.532Z,8.80
2023-03-26T11:26:52.786Z,8.80
2023-03-26T11:29:32.384Z,8.70
2023-03-26T11:32:10.833Z,8.70
2023-03-26T11:34:58.258Z,8.70
2023-03-26T11:37:43.809Z,8.70
2023-03-26T11:40:15.634Z,8.70
2023-03-26T11:42:43.722Z,8.60
2023-03-26T11:45:18.785Z,8.60
2023-03-26T11:47:48.026Z,8.60
2023-03-26T11:50:27.091Z,8.60
2023-03-26T11:53:11.494Z,8.60
2023-03-26T11:55:45.389Z,8.50
2023-03-26T11:58:22.667Z,8.50
2023-03-26T12:00:50.179Z,8.60
2023-03-26T12:03:20.739Z,8.70
2023-03-26T12:05:51.673Z,8.70
2023-03-26T12:08:21.561Z,8.80
2023-03-26T12:10:58.985Z,8.90
2023-03-26T12:13:35.625Z,9.00
2023-03-26T12:16:08.606Z,9.10
2023-03-26T12:18:36.960Z,9.10
2023-03-26T12:21:17.646Z,9.20
2023-03-26T12:23:44.388Z,9.30
2023-03-26T12:26:14.787Z,9.40
2023-03-26T12:28:45.502Z,9.50
2023-03-26T12:31:18.259Z,9.60
2023-03-26T12:33:50.499Z,9.70
2023-03-26T12:36:17.266Z,9.70
2023-03-26T12:38:45.883Z,9.80
2023-03-26T12:44:42.053Z,9.80
2023-03-26T12:44:57.532Z,9.90
2023-03-26T12:47:59.261Z,10.00
2023-03-26T12:50:34.616Z,10.00
2023-03-26T12:53:13.503Z,10.10
2023-03-26T12:55:51.768Z,10.00
2023-03-26T12:58:18.517Z,10.10
2023-03-26T13:00:45.197Z,10.00
2023-03-26T13:03:27.702Z,10.10
2023-03-26T13:05:57.253Z,10.10
2023-03-26T13:08:26.772Z,10.20
2023-03-26T13:11:00.136Z,10.30
2023-03-26T13:13:46.098Z,10.30
2023-03-26T13:16:24.059Z,10.30
2023-03-26T13:19:01.198Z,10.30
2023-03-26T13:21:36.914Z,10.30
2023-03-26T13:24:07.987Z,10.40
2023-03-26T13:26:47.021Z,10.30
2023-03-26T13:29:17.448Z,10.30
2023-03-26T13:31:44.121Z,10.30
2023-03-26T13:34:26.749Z,10.30
2023-03-26T13:36:53.540Z,10.20
2023-03-26T13:39:20.365Z,10.00
2023-03-26T13:41:50.051Z,10.10
2023-03-26T13:44:23.129Z,10.20
2023-03-26T13:46:59.321Z,10.30
2023-03-26T13:49:33.458Z,10.50
2023-03-26T13:52:14.867Z,10.60
2023-03-26T13:54:44.668Z,10.50
2023-03-26T13:57:16.719Z,10.40
2023-03-26T13:59:43.483Z,10.50
2023-03-26T14:02:14.912Z,10.50
2023-03-26T14:04:44.295Z,10.40
2023-03-26T14:07:27.829Z,10.30
2023-03-26T14:09:58.389Z,10.30
2023-03-26T14:12:48.851Z,10.40
2023-03-26T14:15:21.821Z,10.40
2023-03-26T14:17:51.851Z,10.20
2023-03-26T14:20:19.906Z,10.30
2023-03-26T14:23:05.214Z,10.40
2023-03-26T14:25:37.816Z,10.40
2023-03-26T14:28:23.224Z,10.20
2023-03-26T14:30:56.388Z,10.00
2023-03-26T14:33:47.625Z,9.80
2023-03-26T14:36:32.980Z,9.80
2023-03-26T14:39:08.612Z,9.70
2023-03-26T14:41:44.833Z,9.80
2023-03-26T14:44:30.317Z,9.70
2023-03-26T14:47:15.946Z,9.70
2023-03-26T14:49:54.572Z,9.90
2023-03-26T14:52:31.242Z,9.90
2023-03-26T14:55:01.381Z,9.90
2023-03-26T14:57:37.130Z,9.90
2023-03-26T15:00:07.110Z,9.90
2023-03-26T15:02:53.551Z,9.80
2023-03-26T15:05:39.866Z,9.80
2023-03-26T15:08:33.615Z,9.70
2023-03-26T15:11:14.536Z,9.80
2023-03-26T15:13:44.162Z,9.80
2023-03-26T15:16:10.946Z,9.80
2023-03-26T15:18:56.670Z,9.70
2023-03-26T15:21:45.700Z,9.60
2023-03-26T15:24:15.312Z,9.60
2023-03-26T15:27:11.685Z,9.60
2023-03-26T15:30:02.666Z,9.60
2023-03-26T15:32:30.135Z,9.70
2023-03-26T15:35:15.141Z,9.70
2023-03-26T15:37:57.026Z,9.60
2023-03-26T15:40:32.894Z,9.50
2023-03-26T15:43:13.052Z,9.30
2023-03-26T15:45:58.657Z,9.10
2023-03-26T15:48:31.935Z,8.90
2023-03-26T15:51:04.737Z,8.90
2023-03-26T15:53:33.523Z,8.90
2023-03-26T15:56:07.334Z,8.90
2023-03-26T15:58:44.646Z,8.90
2023-03-26T16:01:25.638Z,8.90
2023-03-26T16:04:04.857Z,8.90
2023-03-26T16:06:34.396Z,8.80
2023-03-26T16:09:19.798Z,8.80
2023-03-26T16:11:54.680Z,8.60
2023-03-26T16:14:40.603Z,8.60
2023-03-26T16:17:12.391Z,8.60
2023-03-26T16:19:49.492Z,8.60
2023-03-26T16:22:35.389Z,8.60
2023-03-26T16:25:27.117Z,8.60
2023-03-26T16:28:07.651Z,8.60
2023-03-26T16:30:34.525Z,8.60
2023-03-26T16:33:15.509Z,8.50
2023-03-26T16:35:59.469Z,8.50
2023-03-26T16:38:27.238Z,8.40
2023-03-26T16:41:00.266Z,8.30
2023-03-26T16:44:00.016Z,8.20
2023-03-26T16:46:45.588Z,8.20
2023-03-26T16:49:18.282Z,8.20
2023-03-26T16:52:09.639Z,8.20
2023-03-26T16:54:41.655Z,8.20
2023-03-26T16:57:14.213Z,8.10
2023-03-26T17:00:06.265Z,8.10
2023-03-26T17:02:38.393Z,8.00
2023-03-26T17:05:14.552Z,8.00
2023-03-26T17:07:44.736Z,8.00
2023-03-26T17:10:34.190Z,7.80
2023-03-26T17:13:06.281Z,7.80
2023-03-26T17:15:55.779Z,7.70
2023-03-26T17:18:41.323Z,7.70
2023-03-26T17:21:15.964Z,7.60
2023-03-26T17:24:01.234Z,7.60
2023-03-26T17:26:33.850Z,7.60
2023-03-26T17:29:01.502Z,7.60
2023-03-26T17:31:35.253Z,7.60
2023-03-26T17:34:20.980Z,7.50
2023-03-26T17:36:55.006Z,7.50
2023-03-26T17:39:46.678Z,7.50
2023-03-26T17:42:13.815Z,7.50
2023-03-26T17:44:51.637Z,7.50
2023-03-26T17:47:32.368Z,7.50
2023-03-26T17:50:11.272Z,7.50
2023-03-26T17:52:48.050Z,7.50
2023-03-26T17:55:17.020Z,7.50
2023-03-26T17:57:46.249Z,7.40
2023-03-26T18:00:33.302Z,7.40
2023-03-26T18:03:07.590Z,7.40
2023-03-26T18:05:37.848Z,7.30
2023-03-26T18:08:23.095Z,7.40
2023-03-26T18:10:58.633Z,7.30
2023-03-26T18:13:25.849Z,7.30
2023-03-26T18:16:01.760Z,7.20
2023-03-26T18:18:31.283Z,7.20
2023-03-26T18:20:59.647Z,7.10
2023-03-26T18:23:44.281Z,7.10
2023-03-26T18:26:13.889Z,7.10
2023-03-26T18:28:42.115Z,7.10
2023-03-26T18:31:16.587Z,7.00
2023-03-26T18:33:44.656Z,7.00
2023-03-26T18:36:11.625Z,7.00
2023-03-26T18:38:40.600Z,6.90
2023-03-26T18:41:15.151Z,6.90
2023-03-26T18:43:44.574Z,6.90
2023-03-26T18:46:13.323Z,6.90
2023-03-26T18:48:40.365Z,6.90
2023-03-26T18:51:07.555Z,6.90
2023-03-26T18:53:49.009Z,6.90
2023-03-26T18:56:27.256Z,6.80
2023-03-26T18:58:57.462Z,6.80
2023-03-26T19:01:26.264Z,6.70
2023-03-26T19:03:53.752Z,6.80
2023-03-26T19:06:20.874Z,6.70
2023-03-26T19:08:47.873Z,6.70
2023-03-26T19:11:16.392Z,6.70
2023-03-26T19:13:43.208Z,6.70
2023-03-26T19:16:26.447Z,6.60
2023-03-26T19:18:53.403Z,6.60
2023-03-26T19:21:23.102Z,6.60
2023-03-26T19:23:51.795Z,6.60
2023-03-26T19:26:18.974Z,6.60
2023-03-26T19:28:50.574Z,6.60
2023-03-26T19:31:34.700Z,6.60
2023-03-26T19:34:13.605Z,6.50
2023-03-26T19:36:52.482Z,6.50
2023-03-26T19:39:34.669Z,6.50
2023-03-26T19:42:04.794Z,6.60
2023-03-26T19:44:31.652Z,6.60
2023-03-26T19:47:17.963Z,6.50
2023-03-26T19:50:03.721Z,6.40
2023-03-26T19:52:34.735Z,6.40
2023-03-26T19:55:17.799Z,6.40
2023-03-26T19:57:45.072Z,6.40
2023-03-26T20:00:15.059Z,6.30
2023-03-26T20:02:42.484Z,6.30
2023-03-26T20:05:18.937Z,6.30
2023-03-26T20:07:45.906Z,6.30
2023-03-26T20:10:12.623Z,6.20
2023-03-26T20:12:39.320Z,6.20
2023-03-26T20:15:19.306Z,6.20
2023-03-26T20:17:49.849Z,6.20
2023-03-26T20:20:17.382Z,6.10
2023-03-26T20:22:46.111Z,6.00
2023-03-26T20:25:23.576Z,6.00
2023-03-26T20:27:52.889Z,6.00
2023-03-26T20:30:36.375Z,5.90
2023-03-26T20:33:12.832Z,5.90
2023-03-26T20:35:40.682Z,5.90
2023-03-26T20:38:09.384Z,5.90
2023-03-26T20:40:36.664Z,5.80
2023-03-26T20:43:03.595Z,5.80
2023-03-26T20:45:30.338Z,5.80
2023-03-26T20:47:57.456Z,5.80
2023-03-26T20:50:24.577Z,5.70
2023-03-26T20:52:51.276Z,5.70
2023-03-26T20:55:21.317Z,5.70
2023-03-26T20:57:48.303Z,5.60
2023-03-26T21:00:22.607Z,5.60
2023-03-26T21:02:53.469Z,5.50
2023-03-26T21:05:26.983Z,5.40
2023-03-26T21:07:54.766Z,5.30
2023-03-26T21:10:22.428Z,5.20
2023-03-26T21:13:08.229Z,5.10
2023-03-26T21:15:35.161Z,5.00
2023-03-26T21:18:02.128Z,4.90
2023-03-26T21:20:29.091Z,4.90
2023-03-26T21:23:07.846Z,4.80
2023-03-26T21:25:39.377Z,4.70
2023-03-26T21:28:15.970Z,4.60
2023-03-26T21:30:43.057Z,4.50
2023-03-26T21:33:09.818Z,4.50
2023-03-26T21:35:36.867Z,4.40
2023-03-26T21:38:04.406Z,4.30
2023-03-26T21:40:31.310Z,4.30
2023-03-26T21:42:58.156Z,4.20
2023-03-26T21:45:25.043Z,4.20
2023-03-26T21:47:51.929Z,4.10
2023-03-26T21:50:20.933Z,4.10
2023-03-26T21:52:50.856Z,4.00
2023-03-26T21:55:21.865Z,3.90
2023-03-26T21:57:54.856Z,3.90
2023-03-26T22:00:28.213Z,3.80
2023-03-26T22:03:18.138Z,3.80
2023-03-26T22:05:52.694Z,3.80
2023-03-26T22:08:19.369Z,3.70
2023-03-26T22:10:47.405Z,3.70
2023-03-26T22:13:14.104Z,3.70
2023-03-26T22:15:41.111Z,3.60
2023-03-26T22:18:07.915Z,3.50
2023-03-26T22:20:34.764Z,3.50
2023-03-26T22:23:01.779Z,3.50
2023-03-26T22:25:28.632Z,3.40
2023-03-26T22:27:55.409Z,3.40
2023-03-26T22:30:22.195Z,3.40
2023-03-26T22:32:50.028Z,3.30
2023-03-26T22:35:17.051Z,3.30
2023-03-26T22:37:43.866Z,3.30
2023-03-26T22:40:13.537Z,3.30
2023-03-26T22:42:40.877Z,3.20
2023-03-26T22:45:07.804Z,3.20
2023-03-26T22:47:35.454Z,3.10
2023-03-26T22:50:03.201Z,3.10
2023-03-26T22:52:30.507Z,3.00
2023-03-26T22:54:57.224Z,3.00
2023-03-26T22:57:24.250Z,3.00
2023-03-26T22:59:51.897Z,3.00
2023-03-26T23:02:19.406Z,2.90
2023-03-26T23:04:47.764Z,2.90
2023-03-26T23:07:14.649Z,2.80
2023-03-26T23:09:41.579Z,2.80
2023-03-26T23:12:08.590Z,2.80
2023-03-26T23:14:36.161Z,2.70
2023-03-26T23:17:03.528Z,2.70
2023-03-26T23:19:30.314Z,2.70
2023-03-26T23:21:57.277Z,2.60
2023-03-26T23:24:26.288Z,2.60
2023-03-26T23:26:53.275Z,2.50
2023-03-26T23:29:20.172Z,2.50
2023-03-26T23:31:46.986Z,2.50
2023-03-26T23:34:14.105Z,2.40
2023-03-26T23:36:41.753Z,2.40
2023-03-26T23:39:08.990Z,2.40
2023-03-26T23:41:36.621Z,2.30
2023-03-26T23:44:03.701Z,2.30
2023-03-26T23:46:32.923Z,2.20
2023-03-26T23:49:02.015Z,2.20
2023-03-26T23:51:30.062Z,2.10
2023-03-26T23:53:56.952Z,2.10
2023-03-26T23:56:23.753Z,2.00
2023-03-26T23:58:50.456Z,2.00
